sensor_id;sensor_type;location;lat;lon;timestamp;P1;durP1;ratioP1;P2;durP2;ratioP2
55539;SDS011;41384;51.418;7.286;2023-01-16T00:00:46;3.50;;;1.48;;
55539;SDS011;41384;51.418;7.286;2023-01-16T00:03:11;1.52;;;0.82;;
55539;SDS011;41384;51.418;7.286;2023-01-16T00:05:37;4.28;;;1.00;;
55539;SDS011;41384;51.418;7.286;2023-01-16T00:08:02;1.98;;;0.80;;
55539;SDS011;41384;51.418;7.286;2023-01-16T00:10:27;2.67;;;0.88;;
55539;SDS011;41384;51.418;7.286;2023-01-16T00:12:52;2.00;;;1.02;;
55539;SDS011;41384;51.418;7.286;2023-01-16T00:15:18;5.35;;;1.05;;
55539;SDS011;41384;51.418;7.286;2023-01-16T00:17:43;1.38;;;1.00;;
55539;SDS011;41384;51.418;7.286;2023-01-16T00:20:08;1.30;;;0.95;;
55539;SDS011;41384;51.418;7.286;2023-01-16T00:22:34;3.20;;;1.10;;
55539;SDS011;41384;51.418;7.286;2023-01-16T00:24:59;4.25;;;1.10;;
55539;SDS011;41384;51.418;7.286;2023-01-16T00:27:25;3.50;;;1.20;;
55539;SDS011;41384;51.418;7.286;2023-01-16T00:29:50;2.67;;;1.15;;
55539;SDS011;41384;51.418;7.286;2023-01-16T00:32:15;3.60;;;1.30;;
55539;SDS011;41384;51.418;7.286;2023-01-16T00:34:41;3.10;;;1.00;;
55539;SDS011;41384;51.418;7.286;2023-01-16T00:37:06;1.88;;;0.80;;
55539;SDS011;41384;51.418;7.286;2023-01-16T00:39:31;2.90;;;0.90;;
55539;SDS011;41384;51.418;7.286;2023-01-16T00:41:57;3.17;;;1.10;;
55539;SDS011;41384;51.418;7.286;2023-01-16T00:44:23;1.45;;;0.90;;
55539;SDS011;41384;51.418;7.286;2023-01-16T00:46:48;5.90;;;1.40;;
55539;SDS011;41384;51.418;7.286;2023-01-16T00:49:13;3.42;;;1.10;;
55539;SDS011;41384;51.418;7.286;2023-01-16T00:51:38;1.40;;;1.23;;
55539;SDS011;41384;51.418;7.286;2023-01-16T00:54:04;6.53;;;1.25;;
55539;SDS011;41384;51.418;7.286;2023-01-16T00:56:29;2.42;;;1.15;;
55539;SDS011;41384;51.418;7.286;2023-01-16T00:58:54;2.58;;;1.20;;
55539;SDS011;41384;51.418;7.286;2023-01-16T01:01:19;0.90;;;0.90;;
55539;SDS011;41384;51.418;7.286;2023-01-16T01:03:45;2.72;;;0.90;;
55539;SDS011;41384;51.418;7.286;2023-01-16T01:06:10;1.75;;;0.77;;
55539;SDS011;41384;51.418;7.286;2023-01-16T01:08:36;1.95;;;0.93;;
55539;SDS011;41384;51.418;7.286;2023-01-16T01:11:08;1.23;;;0.90;;
55539;SDS011;41384;51.418;7.286;2023-01-16T01:13:34;3.28;;;1.20;;
55539;SDS011;41384;51.418;7.286;2023-01-16T01:16:00;2.85;;;0.82;;
55539;SDS011;41384;51.418;7.286;2023-01-16T01:18:26;2.40;;;1.08;;
55539;SDS011;41384;51.418;7.286;2023-01-16T01:20:51;5.85;;;1.10;;
55539;SDS011;41384;51.418;7.286;2023-01-16T01:23:16;1.95;;;0.85;;
55539;SDS011;41384;51.418;7.286;2023-01-16T01:25:41;1.20;;;1.10;;
55539;SDS011;41384;51.418;7.286;2023-01-16T01:28:07;1.45;;;1.20;;
55539;SDS011;41384;51.418;7.286;2023-01-16T01:30:32;1.00;;;1.00;;
55539;SDS011;41384;51.418;7.286;2023-01-16T01:32:57;0.95;;;0.95;;
55539;SDS011;41384;51.418;7.286;2023-01-16T01:35:23;4.53;;;1.30;;
55539;SDS011;41384;51.418;7.286;2023-01-16T01:37:48;2.72;;;1.08;;
55539;SDS011;41384;51.418;7.286;2023-01-16T01:40:13;1.23;;;1.02;;
55539;SDS011;41384;51.418;7.286;2023-01-16T01:42:39;2.72;;;0.93;;
55539;SDS011;41384;51.418;7.286;2023-01-16T01:47:49;0.88;;;0.82;;
55539;SDS011;41384;51.418;7.286;2023-01-16T01:50:22;1.73;;;1.10;;
55539;SDS011;41384;51.418;7.286;2023-01-16T01:52:59;1.45;;;1.10;;
55539;SDS011;41384;51.418;7.286;2023-01-16T01:55:27;1.58;;;0.88;;
55539;SDS011;41384;51.418;7.286;2023-01-16T01:57:53;3.75;;;1.10;;
55539;SDS011;41384;51.418;7.286;2023-01-16T02:00:23;3.13;;;1.20;;
55539;SDS011;41384;51.418;7.286;2023-01-16T02:05:33;4.10;;;1.13;;
55539;SDS011;41384;51.418;7.286;2023-01-16T02:08:01;2.42;;;1.00;;
55539;SDS011;41384;51.418;7.286;2023-01-16T02:13:00;1.02;;;0.82;;
55539;SDS011;41384;51.418;7.286;2023-01-16T02:15:26;3.00;;;1.08;;
55539;SDS011;41384;51.418;7.286;2023-01-16T02:17:52;2.92;;;1.10;;
55539;SDS011;41384;51.418;7.286;2023-01-16T02:20:41;3.47;;;0.73;;
55539;SDS011;41384;51.418;7.286;2023-01-16T02:26:22;3.40;;;0.90;;
55539;SDS011;41384;51.418;7.286;2023-01-16T02:32:10;1.20;;;0.70;;
55539;SDS011;41384;51.418;7.286;2023-01-16T02:35:03;3.72;;;0.93;;
55539;SDS011;41384;51.418;7.286;2023-01-16T02:37:45;2.33;;;0.88;;
55539;SDS011;41384;51.418;7.286;2023-01-16T02:40:35;1.15;;;0.98;;
55539;SDS011;41384;51.418;7.286;2023-01-16T02:46:21;1.65;;;0.80;;
55539;SDS011;41384;51.418;7.286;2023-01-16T02:49:11;1.85;;;0.73;;
55539;SDS011;41384;51.418;7.286;2023-01-16T02:51:50;1.42;;;0.98;;
55539;SDS011;41384;51.418;7.286;2023-01-16T02:54:23;2.10;;;0.77;;
55539;SDS011;41384;51.418;7.286;2023-01-16T02:57:07;4.25;;;1.10;;
55539;SDS011;41384;51.418;7.286;2023-01-16T02:59:38;2.88;;;1.00;;
55539;SDS011;41384;51.418;7.286;2023-01-16T03:02:05;1.73;;;0.98;;
55539;SDS011;41384;51.418;7.286;2023-01-16T03:04:41;1.52;;;0.90;;
55539;SDS011;41384;51.418;7.286;2023-01-16T03:18:50;1.13;;;0.80;;
55539;SDS011;41384;51.418;7.286;2023-01-16T03:21:35;0.85;;;0.73;;
55539;SDS011;41384;51.418;7.286;2023-01-16T03:27:11;1.70;;;0.77;;
55539;SDS011;41384;51.418;7.286;2023-01-16T03:30:07;1.38;;;0.90;;
55539;SDS011;41384;51.418;7.286;2023-01-16T03:32:52;0.98;;;0.60;;
55539;SDS011;41384;51.418;7.286;2023-01-16T03:38:34;1.80;;;0.80;;
55539;SDS011;41384;51.418;7.286;2023-01-16T03:41:04;0.68;;;0.50;;
55539;SDS011;41384;51.418;7.286;2023-01-16T03:43:34;1.35;;;0.80;;
55539;SDS011;41384;51.418;7.286;2023-01-16T03:46:07;1.02;;;0.80;;
55539;SDS011;41384;51.418;7.286;2023-01-16T03:48:44;1.25;;;0.73;;
55539;SDS011;41384;51.418;7.286;2023-01-16T03:51:13;1.33;;;0.68;;
55539;SDS011;41384;51.418;7.286;2023-01-16T03:53:45;0.75;;;0.70;;
55539;SDS011;41384;51.418;7.286;2023-01-16T03:59:10;1.63;;;0.80;;
55539;SDS011;41384;51.418;7.286;2023-01-16T04:04:20;2.67;;;0.87;;
55539;SDS011;41384;51.418;7.286;2023-01-16T04:06:56;1.27;;;0.82;;
55539;SDS011;41384;51.418;7.286;2023-01-16T04:09:41;0.88;;;0.80;;
55539;SDS011;41384;51.418;7.286;2023-01-16T04:12:10;2.25;;;1.00;;
55539;SDS011;41384;51.418;7.286;2023-01-16T04:14:42;1.85;;;0.70;;
55539;SDS011;41384;51.418;7.286;2023-01-16T04:17:09;2.38;;;0.70;;
55539;SDS011;41384;51.418;7.286;2023-01-16T04:19:35;3.05;;;0.80;;
55539;SDS011;41384;51.418;7.286;2023-01-16T04:22:04;1.08;;;0.70;;
55539;SDS011;41384;51.418;7.286;2023-01-16T04:24:31;2.97;;;0.90;;
55539;SDS011;41384;51.418;7.286;2023-01-16T04:26:56;3.25;;;0.80;;
55539;SDS011;41384;51.418;7.286;2023-01-16T04:29:22;1.45;;;0.80;;
55539;SDS011;41384;51.418;7.286;2023-01-16T04:31:47;4.47;;;1.00;;
55539;SDS011;41384;51.418;7.286;2023-01-16T04:34:12;0.63;;;0.63;;
55539;SDS011;41384;51.418;7.286;2023-01-16T04:36:37;2.92;;;0.80;;
55539;SDS011;41384;51.418;7.286;2023-01-16T04:39:03;2.20;;;0.95;;
55539;SDS011;41384;51.418;7.286;2023-01-16T04:41:28;1.80;;;0.95;;
55539;SDS011;41384;51.418;7.286;2023-01-16T04:44:03;1.15;;;1.00;;
55539;SDS011;41384;51.418;7.286;2023-01-16T04:46:30;3.55;;;1.00;;
55539;SDS011;41384;51.418;7.286;2023-01-16T04:48:55;3.03;;;0.80;;
55539;SDS011;41384;51.418;7.286;2023-01-16T04:51:21;2.80;;;1.08;;
55539;SDS011;41384;51.418;7.286;2023-01-16T04:53:46;1.08;;;0.93;;
55539;SDS011;41384;51.418;7.286;2023-01-16T04:56:11;1.98;;;0.95;;
55539;SDS011;41384;51.418;7.286;2023-01-16T04:58:37;0.70;;;0.70;;
55539;SDS011;41384;51.418;7.286;2023-01-16T05:01:02;3.40;;;1.00;;
55539;SDS011;41384;51.418;7.286;2023-01-16T05:03:27;1.95;;;0.80;;
55539;SDS011;41384;51.418;7.286;2023-01-16T05:05:52;4.78;;;1.10;;
55539;SDS011;41384;51.418;7.286;2023-01-16T05:08:18;1.17;;;0.88;;
55539;SDS011;41384;51.418;7.286;2023-01-16T05:10:43;3.42;;;1.00;;
55539;SDS011;41384;51.418;7.286;2023-01-16T05:13:09;1.45;;;0.90;;
55539;SDS011;41384;51.418;7.286;2023-01-16T05:15:34;0.90;;;0.90;;
55539;SDS011;41384;51.418;7.286;2023-01-16T05:17:59;2.72;;;0.98;;
55539;SDS011;41384;51.418;7.286;2023-01-16T05:20:25;1.08;;;0.98;;
55539;SDS011;41384;51.418;7.286;2023-01-16T05:22:50;1.45;;;0.80;;
55539;SDS011;41384;51.418;7.286;2023-01-16T05:25:15;2.03;;;1.00;;
55539;SDS011;41384;51.418;7.286;2023-01-16T05:27:40;4.00;;;0.90;;
55539;SDS011;41384;51.418;7.286;2023-01-16T05:30:06;1.83;;;1.08;;
55539;SDS011;41384;51.418;7.286;2023-01-16T05:32:32;2.33;;;0.93;;
55539;SDS011;41384;51.418;7.286;2023-01-16T05:34:57;2.65;;;0.90;;
55539;SDS011;41384;51.418;7.286;2023-01-16T05:37:25;2.28;;;0.80;;
55539;SDS011;41384;51.418;7.286;2023-01-16T05:39:50;1.85;;;0.90;;
55539;SDS011;41384;51.418;7.286;2023-01-16T05:42:16;2.03;;;0.75;;
55539;SDS011;41384;51.418;7.286;2023-01-16T05:44:49;2.20;;;0.80;;
55539;SDS011;41384;51.418;7.286;2023-01-16T05:47:16;1.33;;;0.70;;
55539;SDS011;41384;51.418;7.286;2023-01-16T05:49:43;1.63;;;1.00;;
55539;SDS011;41384;51.418;7.286;2023-01-16T05:52:08;1.73;;;0.88;;
55539;SDS011;41384;51.418;7.286;2023-01-16T05:54:33;1.35;;;0.80;;
55539;SDS011;41384;51.418;7.286;2023-01-16T05:56:58;1.10;;;1.00;;
55539;SDS011;41384;51.418;7.286;2023-01-16T05:59:24;3.08;;;0.80;;
55539;SDS011;41384;51.418;7.286;2023-01-16T06:01:49;2.60;;;0.90;;
55539;SDS011;41384;51.418;7.286;2023-01-16T06:04:14;1.80;;;1.17;;
55539;SDS011;41384;51.418;7.286;2023-01-16T06:06:40;0.75;;;0.75;;
55539;SDS011;41384;51.418;7.286;2023-01-16T06:09:05;2.15;;;0.90;;
55539;SDS011;41384;51.418;7.286;2023-01-16T06:11:30;2.78;;;0.95;;
55539;SDS011;41384;51.418;7.286;2023-01-16T06:13:56;2.50;;;1.83;;
55539;SDS011;41384;51.418;7.286;2023-01-16T06:16:22;1.50;;;0.90;;
55539;SDS011;41384;51.418;7.286;2023-01-16T06:18:50;2.15;;;0.88;;
55539;SDS011;41384;51.418;7.286;2023-01-16T06:21:15;3.00;;;1.00;;
55539;SDS011;41384;51.418;7.286;2023-01-16T06:23:40;1.83;;;0.80;;
55539;SDS011;41384;51.418;7.286;2023-01-16T06:26:05;2.08;;;0.77;;
55539;SDS011;41384;51.418;7.286;2023-01-16T06:28:34;3.08;;;0.90;;
55539;SDS011;41384;51.418;7.286;2023-01-16T06:31:00;0.70;;;0.70;;
55539;SDS011;41384;51.418;7.286;2023-01-16T06:33:25;1.58;;;0.70;;
55539;SDS011;41384;51.418;7.286;2023-01-16T06:35:51;1.25;;;0.70;;
55539;SDS011;41384;51.418;7.286;2023-01-16T06:38:16;3.13;;;0.90;;
55539;SDS011;41384;51.418;7.286;2023-01-16T06:40:43;0.90;;;0.90;;
55539;SDS011;41384;51.418;7.286;2023-01-16T06:43:09;1.77;;;0.82;;
55539;SDS011;41384;51.418;7.286;2023-01-16T06:45:35;1.42;;;0.80;;
55539;SDS011;41384;51.418;7.286;2023-01-16T06:48:00;2.55;;;1.17;;
55539;SDS011;41384;51.418;7.286;2023-01-16T06:50:25;1.60;;;1.00;;
55539;SDS011;41384;51.418;7.286;2023-01-16T06:52:51;1.95;;;1.02;;
55539;SDS011;41384;51.418;7.286;2023-01-16T06:55:16;2.35;;;1.00;;
55539;SDS011;41384;51.418;7.286;2023-01-16T06:57:41;1.35;;;0.88;;
55539;SDS011;41384;51.418;7.286;2023-01-16T07:00:07;1.65;;;1.05;;
55539;SDS011;41384;51.418;7.286;2023-01-16T07:02:32;1.25;;;1.00;;
55539;SDS011;41384;51.418;7.286;2023-01-16T07:04:58;1.52;;;1.10;;
55539;SDS011;41384;51.418;7.286;2023-01-16T07:07:23;4.78;;;1.35;;
55539;SDS011;41384;51.418;7.286;2023-01-16T07:09:48;1.33;;;1.10;;
55539;SDS011;41384;51.418;7.286;2023-01-16T07:12:13;1.92;;;1.00;;
55539;SDS011;41384;51.418;7.286;2023-01-16T07:14:39;1.17;;;1.13;;
55539;SDS011;41384;51.418;7.286;2023-01-16T07:17:23;4.10;;;1.25;;
55539;SDS011;41384;51.418;7.286;2023-01-16T07:20:09;3.85;;;0.93;;
55539;SDS011;41384;51.418;7.286;2023-01-16T07:22:53;2.10;;;1.20;;
55539;SDS011;41384;51.418;7.286;2023-01-16T07:25:20;1.98;;;1.10;;
55539;SDS011;41384;51.418;7.286;2023-01-16T07:27:50;1.20;;;1.08;;
55539;SDS011;41384;51.418;7.286;2023-01-16T07:30:16;2.25;;;0.80;;
55539;SDS011;41384;51.418;7.286;2023-01-16T07:32:42;2.92;;;1.15;;
55539;SDS011;41384;51.418;7.286;2023-01-16T07:35:09;2.20;;;1.15;;
55539;SDS011;41384;51.418;7.286;2023-01-16T07:37:34;1.58;;;1.00;;
55539;SDS011;41384;51.418;7.286;2023-01-16T07:39:59;1.10;;;1.00;;
55539;SDS011;41384;51.418;7.286;2023-01-16T07:42:24;1.05;;;1.00;;
55539;SDS011;41384;51.418;7.286;2023-01-16T07:44:50;3.88;;;1.17;;
55539;SDS011;41384;51.418;7.286;2023-01-16T07:47:15;1.50;;;1.20;;
55539;SDS011;41384;51.418;7.286;2023-01-16T07:49:40;3.35;;;1.30;;
55539;SDS011;41384;51.418;7.286;2023-01-16T07:52:05;1.83;;;1.10;;
55539;SDS011;41384;51.418;7.286;2023-01-16T07:54:31;1.88;;;1.27;;
55539;SDS011;41384;51.418;7.286;2023-01-16T07:56:56;1.48;;;0.90;;
55539;SDS011;41384;51.418;7.286;2023-01-16T07:59:22;1.77;;;1.02;;
55539;SDS011;41384;51.418;7.286;2023-01-16T08:01:47;1.10;;;1.00;;
55539;SDS011;41384;51.418;7.286;2023-01-16T08:04:12;1.13;;;1.02;;
55539;SDS011;41384;51.418;7.286;2023-01-16T08:06:38;2.92;;;1.20;;
55539;SDS011;41384;51.418;7.286;2023-01-16T08:09:09;3.45;;;1.35;;
55539;SDS011;41384;51.418;7.286;2023-01-16T08:11:35;1.30;;;1.10;;
55539;SDS011;41384;51.418;7.286;2023-01-16T08:14:00;1.55;;;1.00;;
55539;SDS011;41384;51.418;7.286;2023-01-16T08:16:26;2.63;;;0.90;;
55539;SDS011;41384;51.418;7.286;2023-01-16T08:18:51;3.08;;;1.00;;
55539;SDS011;41384;51.418;7.286;2023-01-16T08:21:16;1.13;;;1.00;;
55539;SDS011;41384;51.418;7.286;2023-01-16T08:23:42;2.95;;;1.35;;
55539;SDS011;41384;51.418;7.286;2023-01-16T08:26:08;1.30;;;0.90;;
55539;SDS011;41384;51.418;7.286;2023-01-16T08:28:34;1.10;;;0.90;;
55539;SDS011;41384;51.418;7.286;2023-01-16T08:31:04;2.47;;;1.00;;
55539;SDS011;41384;51.418;7.286;2023-01-16T08:33:36;2.85;;;1.20;;
55539;SDS011;41384;51.418;7.286;2023-01-16T08:36:02;2.42;;;1.25;;
55539;SDS011;41384;51.418;7.286;2023-01-16T08:38:29;2.08;;;1.10;;
55539;SDS011;41384;51.418;7.286;2023-01-16T08:40:54;1.88;;;1.30;;
55539;SDS011;41384;51.418;7.286;2023-01-16T08:43:19;2.00;;;0.80;;
55539;SDS011;41384;51.418;7.286;2023-01-16T08:46:03;1.10;;;0.98;;
55539;SDS011;41384;51.418;7.286;2023-01-16T08:48:52;4.25;;;1.00;;
55539;SDS011;41384;51.418;7.286;2023-01-16T08:51:36;1.85;;;0.90;;
55539;SDS011;41384;51.418;7.286;2023-01-16T08:54:03;3.65;;;1.05;;
55539;SDS011;41384;51.418;7.286;2023-01-16T08:56:29;2.03;;;0.90;;
55539;SDS011;41384;51.418;7.286;2023-01-16T08:58:54;2.90;;;1.13;;
55539;SDS011;41384;51.418;7.286;2023-01-16T09:01:19;2.90;;;1.10;;
55539;SDS011;41384;51.418;7.286;2023-01-16T09:03:45;2.60;;;1.33;;
55539;SDS011;41384;51.418;7.286;2023-01-16T09:06:11;2.00;;;1.00;;
55539;SDS011;41384;51.418;7.286;2023-01-16T09:08:36;2.38;;;0.95;;
55539;SDS011;41384;51.418;7.286;2023-01-16T09:11:01;2.53;;;0.90;;
55539;SDS011;41384;51.418;7.286;2023-01-16T09:13:53;2.28;;;1.10;;
55539;SDS011;41384;51.418;7.286;2023-01-16T09:16:25;0.80;;;0.80;;
55539;SDS011;41384;51.418;7.286;2023-01-16T09:18:50;2.58;;;1.05;;
55539;SDS011;41384;51.418;7.286;2023-01-16T09:21:16;2.25;;;0.90;;
55539;SDS011;41384;51.418;7.286;2023-01-16T09:23:47;2.00;;;0.77;;
55539;SDS011;41384;51.418;7.286;2023-01-16T09:26:12;1.30;;;0.90;;
55539;SDS011;41384;51.418;7.286;2023-01-16T09:28:38;0.90;;;0.85;;
55539;SDS011;41384;51.418;7.286;2023-01-16T09:31:03;4.25;;;1.13;;
55539;SDS011;41384;51.418;7.286;2023-01-16T09:33:29;4.18;;;1.10;;
55539;SDS011;41384;51.418;7.286;2023-01-16T09:35:54;1.55;;;0.90;;
55539;SDS011;41384;51.418;7.286;2023-01-16T09:38:20;0.70;;;0.63;;
55539;SDS011;41384;51.418;7.286;2023-01-16T09:40:45;1.60;;;0.80;;
55539;SDS011;41384;51.418;7.286;2023-01-16T09:46:13;3.17;;;1.20;;
55539;SDS011;41384;51.418;7.286;2023-01-16T09:48:47;1.92;;;0.90;;
55539;SDS011;41384;51.418;7.286;2023-01-16T09:51:23;4.35;;;0.88;;
55539;SDS011;41384;51.418;7.286;2023-01-16T09:53:58;6.10;;;1.00;;
55539;SDS011;41384;51.418;7.286;2023-01-16T09:56:48;2.97;;;1.10;;
55539;SDS011;41384;51.418;7.286;2023-01-16T09:59:40;1.05;;;0.90;;
55539;SDS011;41384;51.418;7.286;2023-01-16T10:02:20;3.17;;;1.08;;
55539;SDS011;41384;51.418;7.286;2023-01-16T10:04:49;0.90;;;0.80;;
55539;SDS011;41384;51.418;7.286;2023-01-16T10:10:23;1.20;;;1.00;;
55539;SDS011;41384;51.418;7.286;2023-01-16T10:18:33;1.20;;;1.00;;
55539;SDS011;41384;51.418;7.286;2023-01-16T10:21:11;3.15;;;1.00;;
55539;SDS011;41384;51.418;7.286;2023-01-16T10:24:01;2.38;;;1.00;;
55539;SDS011;41384;51.418;7.286;2023-01-16T10:26:56;1.10;;;1.00;;
55539;SDS011;41384;51.418;7.286;2023-01-16T10:29:36;0.80;;;0.80;;
55539;SDS011;41384;51.418;7.286;2023-01-16T10:37:36;2.50;;;1.00;;
55539;SDS011;41384;51.418;7.286;2023-01-16T10:40:13;1.30;;;0.93;;
55539;SDS011;41384;51.418;7.286;2023-01-16T10:42:44;0.88;;;0.88;;
55539;SDS011;41384;51.418;7.286;2023-01-16T10:45:34;2.78;;;1.10;;
55539;SDS011;41384;51.418;7.286;2023-01-16T10:48:19;1.27;;;0.90;;
55539;SDS011;41384;51.418;7.286;2023-01-16T10:51:04;3.33;;;1.08;;
55539;SDS011;41384;51.418;7.286;2023-01-16T10:53:31;2.33;;;1.10;;
55539;SDS011;41384;51.418;7.286;2023-01-16T10:55:58;1.17;;;0.98;;
55539;SDS011;41384;51.418;7.286;2023-01-16T10:58:28;1.60;;;0.90;;
55539;SDS011;41384;51.418;7.286;2023-01-16T11:00:56;0.80;;;0.77;;
55539;SDS011;41384;51.418;7.286;2023-01-16T11:03:27;1.10;;;0.90;;
55539;SDS011;41384;51.418;7.286;2023-01-16T11:06:09;1.02;;;0.90;;
55539;SDS011;41384;51.418;7.286;2023-01-16T11:08:37;1.88;;;0.98;;
55539;SDS011;41384;51.418;7.286;2023-01-16T11:11:03;1.05;;;0.80;;
55539;SDS011;41384;51.418;7.286;2023-01-16T11:13:29;2.28;;;0.85;;
55539;SDS011;41384;51.418;7.286;2023-01-16T11:16:22;2.50;;;0.90;;
55539;SDS011;41384;51.418;7.286;2023-01-16T11:19:15;1.05;;;0.93;;
55539;SDS011;41384;51.418;7.286;2023-01-16T11:21:49;0.90;;;0.77;;
55539;SDS011;41384;51.418;7.286;2023-01-16T11:24:24;1.80;;;0.80;;
55539;SDS011;41384;51.418;7.286;2023-01-16T11:26:56;1.70;;;0.73;;
55539;SDS011;41384;51.418;7.286;2023-01-16T11:29:23;0.70;;;0.70;;
55539;SDS011;41384;51.418;7.286;2023-01-16T11:31:54;0.77;;;0.77;;
55539;SDS011;41384;51.418;7.286;2023-01-16T11:34:23;1.50;;;0.70;;
55539;SDS011;41384;51.418;7.286;2023-01-16T11:36:54;0.70;;;0.70;;
55539;SDS011;41384;51.418;7.286;2023-01-16T11:39:23;1.17;;;0.80;;
55539;SDS011;41384;51.418;7.286;2023-01-16T11:41:51;1.17;;;1.00;;
55539;SDS011;41384;51.418;7.286;2023-01-16T11:44:21;0.98;;;0.70;;
55539;SDS011;41384;51.418;7.286;2023-01-16T11:47:15;1.15;;;0.80;;
55539;SDS011;41384;51.418;7.286;2023-01-16T11:49:46;0.50;;;0.50;;
55539;SDS011;41384;51.418;7.286;2023-01-16T11:52:13;0.70;;;0.70;;
55539;SDS011;41384;51.418;7.286;2023-01-16T11:54:52;3.15;;;0.70;;
55539;SDS011;41384;51.418;7.286;2023-01-16T11:59:49;0.60;;;0.60;;
55539;SDS011;41384;51.418;7.286;2023-01-16T12:02:36;0.70;;;0.65;;
55539;SDS011;41384;51.418;7.286;2023-01-16T12:08:29;1.23;;;0.75;;
55539;SDS011;41384;51.418;7.286;2023-01-16T12:13:56;0.70;;;0.70;;
55539;SDS011;41384;51.418;7.286;2023-01-16T12:25:28;0.70;;;0.70;;
55539;SDS011;41384;51.418;7.286;2023-01-16T12:28:09;0.90;;;0.90;;
55539;SDS011;41384;51.418;7.286;2023-01-16T12:56:12;0.75;;;0.75;;
55539;SDS011;41384;51.418;7.286;2023-01-16T12:58:54;0.98;;;0.93;;
55539;SDS011;41384;51.418;7.286;2023-01-16T13:01:33;1.02;;;0.70;;
55539;SDS011;41384;51.418;7.286;2023-01-16T13:04:18;1.02;;;0.82;;
55539;SDS011;41384;51.418;7.286;2023-01-16T13:06:54;1.08;;;0.70;;
55539;SDS011;41384;51.418;7.286;2023-01-16T13:09:23;0.70;;;0.70;;
55539;SDS011;41384;51.418;7.286;2023-01-16T13:15:02;0.70;;;0.70;;
55539;SDS011;41384;51.418;7.286;2023-01-16T13:17:42;0.70;;;0.70;;
55539;SDS011;41384;51.418;7.286;2023-01-16T13:20:12;0.95;;;0.95;;
55539;SDS011;41384;51.418;7.286;2023-01-16T13:22:46;0.90;;;0.90;;
55539;SDS011;41384;51.418;7.286;2023-01-16T13:25:17;2.85;;;0.82;;
55539;SDS011;41384;51.418;7.286;2023-01-16T13:27:57;0.75;;;0.75;;
55539;SDS011;41384;51.418;7.286;2023-01-16T13:30:26;0.98;;;0.90;;
55539;SDS011;41384;51.418;7.286;2023-01-16T13:32:55;1.63;;;0.95;;
55539;SDS011;41384;51.418;7.286;2023-01-16T13:38:22;0.75;;;0.75;;
55539;SDS011;41384;51.418;7.286;2023-01-16T13:47:08;0.90;;;0.90;;
55539;SDS011;41384;51.418;7.286;2023-01-16T13:49:36;1.58;;;0.88;;
55539;SDS011;41384;51.418;7.286;2023-01-16T13:52:02;1.83;;;1.13;;
55539;SDS011;41384;51.418;7.286;2023-01-16T13:54:35;1.98;;;1.10;;
55539;SDS011;41384;51.418;7.286;2023-01-16T13:57:07;3.28;;;1.70;;
55539;SDS011;41384;51.418;7.286;2023-01-16T13:59:54;1.23;;;0.85;;
55539;SDS011;41384;51.418;7.286;2023-01-16T14:05:20;0.80;;;0.80;;
55539;SDS011;41384;51.418;7.286;2023-01-16T14:10:41;1.95;;;1.00;;
55539;SDS011;41384;51.418;7.286;2023-01-16T14:15:55;1.63;;;0.90;;
55539;SDS011;41384;51.418;7.286;2023-01-16T14:21:24;2.60;;;0.90;;
55539;SDS011;41384;51.418;7.286;2023-01-16T14:24:02;1.27;;;1.13;;
55539;SDS011;41384;51.418;7.286;2023-01-16T14:29:13;1.00;;;1.00;;
55539;SDS011;41384;51.418;7.286;2023-01-16T14:31:41;1.42;;;1.10;;
55539;SDS011;41384;51.418;7.286;2023-01-16T14:37:21;1.70;;;0.70;;
55539;SDS011;41384;51.418;7.286;2023-01-16T14:39:59;1.15;;;1.00;;
55539;SDS011;41384;51.418;7.286;2023-01-16T14:45:18;0.75;;;0.75;;
55539;SDS011;41384;51.418;7.286;2023-01-16T14:48:15;1.65;;;1.00;;
55539;SDS011;41384;51.418;7.286;2023-01-16T14:51:30;0.57;;;0.57;;
55539;SDS011;41384;51.418;7.286;2023-01-16T14:54:19;0.98;;;0.90;;
55539;SDS011;41384;51.418;7.286;2023-01-16T14:57:14;0.93;;;0.80;;
55539;SDS011;41384;51.418;7.286;2023-01-16T14:59:56;1.67;;;0.85;;
55539;SDS011;41384;51.418;7.286;2023-01-16T15:02:33;0.95;;;0.90;;
55539;SDS011;41384;51.418;7.286;2023-01-16T15:07:30;1.17;;;1.08;;
55539;SDS011;41384;51.418;7.286;2023-01-16T15:10:13;3.65;;;2.47;;
55539;SDS011;41384;51.418;7.286;2023-01-16T15:15:24;1.27;;;1.10;;
55539;SDS011;41384;51.418;7.286;2023-01-16T15:17:54;1.55;;;1.20;;
55539;SDS011;41384;51.418;7.286;2023-01-16T15:20:44;0.95;;;0.90;;
55539;SDS011;41384;51.418;7.286;2023-01-16T15:23:30;1.25;;;1.15;;
55539;SDS011;41384;51.418;7.286;2023-01-16T15:31:36;1.08;;;1.08;;
55539;SDS011;41384;51.418;7.286;2023-01-16T15:34:05;1.30;;;1.20;;
55539;SDS011;41384;51.418;7.286;2023-01-16T15:36:44;1.58;;;1.48;;
55539;SDS011;41384;51.418;7.286;2023-01-16T15:39:31;1.63;;;1.35;;
55539;SDS011;41384;51.418;7.286;2023-01-16T15:45:19;2.10;;;1.90;;
55539;SDS011;41384;51.418;7.286;2023-01-16T15:48:31;2.30;;;1.60;;
55539;SDS011;41384;51.418;7.286;2023-01-16T15:51:09;2.03;;;1.60;;
55539;SDS011;41384;51.418;7.286;2023-01-16T15:53:40;2.30;;;1.85;;
55539;SDS011;41384;51.418;7.286;2023-01-16T15:56:18;2.05;;;1.60;;
55539;SDS011;41384;51.418;7.286;2023-01-16T15:58:43;1.52;;;1.40;;
55539;SDS011;41384;51.418;7.286;2023-01-16T16:01:12;1.98;;;1.85;;
55539;SDS011;41384;51.418;7.286;2023-01-16T16:03:45;2.53;;;1.58;;
55539;SDS011;41384;51.418;7.286;2023-01-16T16:06:14;2.55;;;1.60;;
55539;SDS011;41384;51.418;7.286;2023-01-16T16:08:43;1.58;;;1.40;;
55539;SDS011;41384;51.418;7.286;2023-01-16T16:11:14;1.50;;;1.40;;
55539;SDS011;41384;51.418;7.286;2023-01-16T16:14:01;1.10;;;1.10;;
55539;SDS011;41384;51.418;7.286;2023-01-16T16:16:58;1.20;;;1.20;;
55539;SDS011;41384;51.418;7.286;2023-01-16T16:19:44;1.83;;;1.30;;
55539;SDS011;41384;51.418;7.286;2023-01-16T16:22:09;1.35;;;1.27;;
55539;SDS011;41384;51.418;7.286;2023-01-16T16:24:54;1.73;;;1.63;;
55539;SDS011;41384;51.418;7.286;2023-01-16T16:27:19;3.53;;;1.90;;
55539;SDS011;41384;51.418;7.286;2023-01-16T16:29:50;1.15;;;1.15;;
55539;SDS011;41384;51.418;7.286;2023-01-16T16:32:16;1.55;;;1.45;;
55539;SDS011;41384;51.418;7.286;2023-01-16T16:34:49;2.08;;;1.40;;
55539;SDS011;41384;51.418;7.286;2023-01-16T16:37:20;1.60;;;1.50;;
55539;SDS011;41384;51.418;7.286;2023-01-16T16:39:54;1.10;;;1.10;;
55539;SDS011;41384;51.418;7.286;2023-01-16T16:47:38;3.75;;;2.03;;
55539;SDS011;41384;51.418;7.286;2023-01-16T16:50:28;2.38;;;1.40;;
55539;SDS011;41384;51.418;7.286;2023-01-16T16:53:04;2.70;;;1.58;;
55539;SDS011;41384;51.418;7.286;2023-01-16T16:55:40;1.70;;;1.40;;
55539;SDS011;41384;51.418;7.286;2023-01-16T16:58:20;2.17;;;1.60;;
55539;SDS011;41384;51.418;7.286;2023-01-16T17:00:47;1.70;;;1.60;;
55539;SDS011;41384;51.418;7.286;2023-01-16T17:03:21;2.42;;;1.60;;
55539;SDS011;41384;51.418;7.286;2023-01-16T17:05:48;2.13;;;1.70;;
55539;SDS011;41384;51.418;7.286;2023-01-16T17:08:18;2.90;;;1.65;;
55539;SDS011;41384;51.418;7.286;2023-01-16T17:10:48;1.85;;;1.55;;
55539;SDS011;41384;51.418;7.286;2023-01-16T17:13:15;1.35;;;1.25;;
55539;SDS011;41384;51.418;7.286;2023-01-16T17:15:42;2.03;;;1.65;;
55539;SDS011;41384;51.418;7.286;2023-01-16T17:18:09;1.55;;;1.45;;
55539;SDS011;41384;51.418;7.286;2023-01-16T17:20:35;1.85;;;1.60;;
55539;SDS011;41384;51.418;7.286;2023-01-16T17:23:02;1.25;;;1.15;;
55539;SDS011;41384;51.418;7.286;2023-01-16T17:25:28;1.50;;;1.40;;
55539;SDS011;41384;51.418;7.286;2023-01-16T17:27:55;1.48;;;1.38;;
55539;SDS011;41384;51.418;7.286;2023-01-16T17:30:21;2.13;;;1.88;;
55539;SDS011;41384;51.418;7.286;2023-01-16T17:35:45;1.50;;;1.40;;
55539;SDS011;41384;51.418;7.286;2023-01-16T17:38:13;2.78;;;1.48;;
55539;SDS011;41384;51.418;7.286;2023-01-16T17:40:40;1.63;;;1.52;;
55539;SDS011;41384;51.418;7.286;2023-01-16T17:43:06;1.63;;;1.52;;
55539;SDS011;41384;51.418;7.286;2023-01-16T17:45:53;1.98;;;1.70;;